Time;durP1;ratioP1;P1;durP2;ratioP2;P2;SDS_P1;SDS_P2;PMS_P1;PMS_P2;Temp;Humidity;BMP_temperature;BMP_pressure;BME280_temperature;BME280_humidity;BME280_pressure;Samples;Min_cycle;Max_cycle;Signal;HPM_P1;HPM_P2
2021/03/16 00:00:17;;;;;;;0.00;0.00;;;3.50;85.80;;;;;;5041415;28;20214;-89
2021/03/16 00:02:42;;;;;;;0.30;0.20;;;3.40;86.20;;;;;;5042799;28;20587;-88
2021/03/16 00:05:09;;;;;;;0.10;0.10;;;3.40;86.20;;;;;;5078403;28;20191;-88
2021/03/16 00:07:35;;;;;;;0.10;0.10;;;3.40;86.40;;;;;;5052538;28;20281;-89
2021/03/16 00:10:01;;;;;;;0.37;0.20;;;3.30;86.40;;;;;;5091107;28;20254;-90
2021/03/16 00:12:27;;;;;;;0.10;0.10;;;3.40;86.50;;;;;;5047331;28;20205;-90
2021/03/16 00:14:53;;;;;;;0.10;0.10;;;3.30;86.50;;;;;;5046705;28;20194;-89
2021/03/16 00:17:19;;;;;;;0.17;0.17;;;3.40;86.40;;;;;;5040285;28;20684;-89
2021/03/16 00:19:46;;;;;;;0.10;0.10;;;3.40;86.20;;;;;;5065174;28;20186;-90
2021/03/16 00:22:12;;;;;;;0.10;0.10;;;3.40;86.20;;;;;;5056958;28;20217;-89
2021/03/16 00:24:37;;;;;;;0.20;0.20;;;3.40;86.40;;;;;;5056296;28;20183;-88
2021/03/16 00:27:04;;;;;;;0.10;0.10;;;3.40;86.30;;;;;;5053211;28;20269;-91
2021/03/16 00:29:31;;;;;;;2.73;0.13;;;3.40;86.30;;;;;;5052680;28;20191;-89
2021/03/16 00:31:57;;;;;;;0.10;0.10;;;3.50;86.20;;;;;;5040832;28;20191;-88
2021/03/16 00:34:22;;;;;;;0.03;0.03;;;3.50;86.10;;;;;;5036570;28;20195;-90
2021/03/16 00:36:48;;;;;;;0.10;0.10;;;3.50;85.70;;;;;;5083725;28;20194;-90
2021/03/16 00:39:14;;;;;;;0.00;0.00;;;3.50;86.00;;;;;;5051840;28;20244;-91
2021/03/16 00:41:40;;;;;;;0.03;0.03;;;3.50;85.60;;;;;;5053919;28;20206;-89
2021/03/16 00:44:07;;;;;;;0.00;0.00;;;3.50;85.60;;;;;;5051287;28;21066;-91
2021/03/16 00:46:33;;;;;;;0.10;0.10;;;3.50;85.80;;;;;;5093808;28;20207;-90
2021/03/16 00:48:59;;;;;;;0.03;0.03;;;3.50;86.10;;;;;;5050436;28;20222;-89
2021/03/16 00:51:25;;;;;;;0.20;0.20;;;3.50;85.80;;;;;;5088721;28;20191;-90
2021/03/16 00:53:50;;;;;;;0.10;0.10;;;3.50;86.10;;;;;;5056646;28;20248;-90
2021/03/16 00:56:16;;;;;;;0.10;0.10;;;3.60;85.80;;;;;;5042920;28;20255;-90
2021/03/16 00:58:42;;;;;;;0.10;0.10;;;3.50;85.80;;;;;;5083898;28;20265;-89
2021/03/16 01:01:08;;;;;;;0.10;0.10;;;3.50;85.80;;;;;;5061058;28;20186;-89
2021/03/16 01:03:35;;;;;;;0.00;0.00;;;3.40;86.90;;;;;;5068678;28;20260;-89
2021/03/16 01:06:02;;;;;;;0.10;0.10;;;3.30;87.70;;;;;;5054188;28;20186;-89
2021/03/16 01:08:28;;;;;;;0.10;0.10;;;3.20;88.30;;;;;;5047824;28;20186;-88
2021/03/16 01:10:54;;;;;;;0.10;0.10;;;3.20;88.70;;;;;;5061676;28;20236;-89
2021/03/16 01:13:21;;;;;;;0.10;0.10;;;3.20;89.00;;;;;;5057286;28;20195;-89
2021/03/16 01:15:47;;;;;;;0.00;0.00;;;3.10;89.30;;;;;;5048222;28;20190;-91
2021/03/16 01:18:13;;;;;;;1.10;0.13;;;3.00;89.60;;;;;;5077065;28;20644;-89
2021/03/16 01:20:39;;;;;;;0.10;0.10;;;3.00;90.00;;;;;;5049679;28;20194;-90
2021/03/16 01:23:05;;;;;;;0.00;0.00;;;3.00;89.90;;;;;;5043719;28;20207;-90
2021/03/16 01:25:31;;;;;;;0.07;0.07;;;3.00;90.00;;;;;;5050474;28;20678;-89
2021/03/16 01:27:56;;;;;;;0.10;0.10;;;3.00;90.00;;;;;;5055971;28;20175;-89
2021/03/16 01:30:23;;;;;;;0.00;0.00;;;3.10;90.40;;;;;;5049238;28;20190;-88
2021/03/16 01:32:49;;;;;;;0.00;0.00;;;3.10;90.30;;;;;;5055473;28;20194;-89
2021/03/16 01:35:15;;;;;;;0.00;0.00;;;3.10;90.20;;;;;;5055818;28;20193;-89
2021/03/16 01:37:42;;;;;;;0.00;0.00;;;3.10;90.30;;;;;;5048573;28;20194;-89
2021/03/16 01:40:16;;;;;;;0.00;0.00;;;3.10;90.20;;;;;;5049146;28;20650;-88
2021/03/16 01:42:43;;;;;;;0.10;0.10;;;3.00;90.80;;;;;;5040877;28;20207;-89
2021/03/16 01:45:16;;;;;;;0.10;0.10;;;3.00;90.90;;;;;;5082932;28;20212;-89
2021/03/16 01:47:50;;;;;;;0.10;0.10;;;3.00;91.10;;;;;;5049873;28;20265;-89
2021/03/16 01:50:19;;;;;;;0.00;0.00;;;3.00;91.10;;;;;;5052485;28;20273;-89
2021/03/16 01:52:46;;;;;;;0.10;0.10;;;3.00;91.30;;;;;;5048358;28;20246;-89
2021/03/16 01:55:13;;;;;;;0.00;0.00;;;2.90;91.60;;;;;;5042055;28;20280;-88
2021/03/16 01:57:41;;;;;;;0.10;0.10;;;2.90;91.80;;;;;;5038332;28;20634;-90
2021/03/16 02:00:07;;;;;;;0.00;0.00;;;2.90;91.90;;;;;;5075248;28;20179;-89
2021/03/16 02:02:35;;;;;;;0.00;0.00;;;2.90;91.80;;;;;;5081357;28;20218;-89
2021/03/16 02:05:01;;;;;;;0.00;0.00;;;2.90;91.90;;;;;;5086152;28;20206;-89
2021/03/16 02:07:52;;;;;;;0.07;0.07;;;2.90;92.30;;;;;;5061895;28;20188;-88
2021/03/16 02:10:25;;;;;;;0.00;0.00;;;2.80;92.60;;;;;;5039086;28;20688;-88
2021/03/16 02:13:10;;;;;;;0.00;0.00;;;2.80;92.70;;;;;;5058469;28;20187;-88
2021/03/16 02:15:39;;;;;;;0.10;0.10;;;2.80;92.80;;;;;;5048498;28;20634;-88
2021/03/16 02:18:14;;;;;;;0.00;0.00;;;2.80;93.00;;;;;;5049119;28;20559;-88
2021/03/16 02:21:06;;;;;;;0.00;0.00;;;2.70;93.20;;;;;;5075861;28;20282;-88
2021/03/16 02:24:05;;;;;;;0.00;0.00;;;2.70;93.30;;;;;;4954106;28;20229;-88
2021/03/16 02:26:46;;;;;;;0.03;0.03;;;2.70;93.20;;;;;;4962378;28;20182;-88
2021/03/16 02:29:24;;;;;;;0.00;0.00;;;2.70;92.90;;;;;;4964929;28;20201;-90
2021/03/16 02:31:56;;;;;;;0.43;0.00;;;2.70;93.30;;;;;;4955757;28;20244;-89
2021/03/16 02:34:23;;;;;;;0.00;0.00;;;2.70;93.40;;;;;;4955235;28;20187;-89
2021/03/16 02:36:49;;;;;;;0.00;0.00;;;2.70;93.50;;;;;;4956457;28;20209;-90
2021/03/16 02:39:17;;;;;;;0.10;0.10;;;2.70;93.20;;;;;;4955952;28;20190;-88
2021/03/16 02:41:48;;;;;;;0.00;0.00;;;2.80;93.10;;;;;;4955118;28;20779;-89
2021/03/16 02:44:15;;;;;;;0.10;0.10;;;2.80;93.00;;;;;;4955169;28;20647;-89
2021/03/16 02:46:43;;;;;;;0.47;0.07;;;2.80;92.60;;;;;;4974182;28;20209;-87
2021/03/16 02:49:11;;;;;;;0.30;0.10;;;2.80;92.40;;;;;;4976855;28;20579;-87
2021/03/16 02:51:38;;;;;;;0.10;0.10;;;2.80;92.30;;;;;;4957172;28;20204;-88
2021/03/16 02:54:04;;;;;;;0.00;0.00;;;2.80;91.60;;;;;;4982312;28;20194;-88
2021/03/16 02:56:33;;;;;;;0.10;0.10;;;2.80;91.40;;;;;;4936272;29;20672;-88
2021/03/16 02:59:00;;;;;;;0.10;0.10;;;2.80;90.90;;;;;;4953486;28;20190;-88
2021/03/16 03:01:27;;;;;;;0.00;0.00;;;2.90;91.00;;;;;;5034011;28;20676;-88
2021/03/16 03:03:53;;;;;;;0.00;0.00;;;2.90;90.70;;;;;;5051497;28;20637;-89
2021/03/16 03:06:20;;;;;;;0.10;0.00;;;2.90;90.60;;;;;;5044905;28;20186;-88
2021/03/16 03:08:47;;;;;;;0.00;0.00;;;2.90;90.40;;;;;;5052198;28;20256;-88
2021/03/16 03:11:13;;;;;;;0.00;0.00;;;3.00;90.30;;;;;;5036797;28;20187;-89
2021/03/16 03:13:39;;;;;;;0.73;0.10;;;3.00;90.00;;;;;;5047030;28;20186;-87
2021/03/16 03:16:06;;;;;;;0.00;0.00;;;3.00;89.50;;;;;;5042061;28;20270;-87
2021/03/16 03:18:33;;;;;;;0.57;0.13;;;3.00;89.40;;;;;;5059576;28;20179;-87
2021/03/16 03:21:19;;;;;;;0.00;0.00;;;3.00;89.70;;;;;;5057762;28;20175;-87
2021/03/16 03:23:56;;;;;;;0.00;0.00;;;3.00;90.20;;;;;;5056290;28;20199;-88
2021/03/16 03:26:44;;;;;;;0.30;0.03;;;3.00;90.90;;;;;;5058856;28;20658;-88
2021/03/16 03:29:14;;;;;;;0.00;0.00;;;2.90;91.30;;;;;;5012398;28;20234;-88
2021/03/16 03:31:44;;;;;;;0.00;0.00;;;2.90;92.20;;;;;;5016409;28;20228;-89
2021/03/16 03:34:11;;;;;;;0.57;0.00;;;2.80;92.70;;;;;;4987353;28;20197;-88
2021/03/16 03:36:39;;;;;;;0.33;0.30;;;2.70;93.40;;;;;;4978973;28;20235;-88
2021/03/16 03:39:06;;;;;;;0.20;0.20;;;2.60;93.70;;;;;;4992253;28;20749;-88
2021/03/16 03:41:34;;;;;;;0.00;0.00;;;2.50;94.20;;;;;;4985537;28;20197;-89
2021/03/16 03:44:04;;;;;;;0.63;0.10;;;2.50;94.80;;;;;;5008193;28;20199;-87
2021/03/16 03:46:34;;;;;;;0.20;0.20;;;2.40;95.00;;;;;;4976291;28;21056;-89
2021/03/16 03:49:03;;;;;;;0.00;0.00;;;2.30;95.60;;;;;;5008320;28;20360;-89
2021/03/16 03:51:30;;;;;;;0.00;0.00;;;2.30;96.10;;;;;;4996057;28;20205;-88
2021/03/16 03:53:59;;;;;;;0.07;0.07;;;2.20;96.40;;;;;;4999543;28;20204;-88
2021/03/16 03:56:26;;;;;;;0.00;0.00;;;2.10;96.90;;;;;;4994203;28;20190;-89
2021/03/16 03:58:53;;;;;;;0.00;0.00;;;2.10;97.40;;;;;;4994093;28;20193;-89
2021/03/16 04:01:19;;;;;;;0.10;0.10;;;2.10;97.80;;;;;;4989862;28;20201;-89
2021/03/16 04:03:45;;;;;;;0.20;0.03;;;2.10;97.80;;;;;;5004591;28;20208;-87
2021/03/16 04:06:12;;;;;;;0.10;0.10;;;2.00;98.00;;;;;;5014863;28;20195;-90
2021/03/16 04:08:38;;;;;;;0.00;0.00;;;2.00;97.90;;;;;;5051275;28;20205;-89
2021/03/16 04:11:05;;;;;;;0.00;0.00;;;2.00;97.80;;;;;;5035809;28;20196;-90
2021/03/16 04:13:32;;;;;;;0.50;0.17;;;2.00;97.80;;;;;;5038993;28;20179;-90
2021/03/16 04:16:00;;;;;;;0.00;0.00;;;2.00;97.90;;;;;;5043223;28;20187;-89
2021/03/16 04:18:26;;;;;;;0.00;0.00;;;2.00;97.50;;;;;;5060679;28;20210;-90
2021/03/16 04:20:53;;;;;;;0.03;0.03;;;2.00;97.60;;;;;;5042661;28;20191;-90
2021/03/16 04:23:19;;;;;;;0.00;0.00;;;2.00;97.40;;;;;;5067253;28;20758;-89
2021/03/16 04:25:46;;;;;;;0.07;0.00;;;2.10;97.10;;;;;;5046551;28;20190;-89
2021/03/16 04:28:11;;;;;;;0.00;0.00;;;2.00;96.40;;;;;;5054972;28;20269;-88
2021/03/16 04:30:37;;;;;;;0.10;0.10;;;2.10;96.30;;;;;;5061674;28;20199;-88
2021/03/16 04:33:03;;;;;;;0.10;0.10;;;2.10;96.20;;;;;;5058121;28;20682;-89
2021/03/16 04:35:29;;;;;;;0.00;0.00;;;2.10;96.50;;;;;;5054223;28;20196;-89
2021/03/16 04:37:54;;;;;;;0.00;0.00;;;2.10;96.60;;;;;;5084568;28;20194;-91
2021/03/16 04:40:21;;;;;;;0.10;0.10;;;2.10;96.50;;;;;;5070750;28;20180;-90
2021/03/16 04:42:47;;;;;;;0.10;0.10;;;2.00;96.30;;;;;;5045743;28;20209;-90
2021/03/16 04:45:13;;;;;;;0.10;0.10;;;2.10;96.20;;;;;;5057143;28;20581;-90
2021/03/16 04:47:39;;;;;;;0.53;0.20;;;2.10;96.20;;;;;;5056158;28;20216;-91
2021/03/16 04:50:05;;;;;;;0.10;0.10;;;2.10;96.40;;;;;;5056317;28;20183;-89
2021/03/16 04:52:31;;;;;;;0.00;0.00;;;2.10;96.50;;;;;;5056030;28;20207;-90
2021/03/16 04:54:57;;;;;;;0.10;0.10;;;2.10;96.30;;;;;;5056139;28;20195;-89
2021/03/16 04:57:22;;;;;;;0.10;0.10;;;2.00;96.70;;;;;;5064737;28;20258;-88
2021/03/16 05:00:07;;;;;;;0.00;0.00;;;2.00;97.40;;;;;;5084758;28;20225;-87
2021/03/16 05:02:33;;;;;;;0.00;0.00;;;2.00;97.40;;;;;;5055226;28;20213;-88
2021/03/16 05:04:58;;;;;;;0.27;0.13;;;1.90;97.80;;;;;;5036360;28;20187;-88
2021/03/16 05:07:24;;;;;;;0.00;0.00;;;1.90;98.20;;;;;;5069012;28;20250;-86
2021/03/16 05:09:50;;;;;;;0.73;0.10;;;1.90;98.50;;;;;;5074483;28;20241;-88
2021/03/16 05:12:15;;;;;;;0.13;0.13;;;1.80;98.50;;;;;;5067689;28;20196;-87
2021/03/16 05:14:41;;;;;;;0.10;0.10;;;1.70;98.50;;;;;;5042997;28;20952;-87
2021/03/16 05:17:07;;;;;;;0.10;0.10;;;1.70;98.50;;;;;;5054638;28;20221;-87
2021/03/16 05:19:32;;;;;;;0.10;0.10;;;1.70;98.50;;;;;;5054322;28;20585;-85
2021/03/16 05:22:00;;;;;;;0.07;0.07;;;1.60;98.50;;;;;;5043707;28;20221;-85
2021/03/16 05:24:28;;;;;;;0.03;0.03;;;1.50;98.50;;;;;;5051185;28;20217;-85
2021/03/16 05:26:54;;;;;;;0.10;0.10;;;1.50;98.50;;;;;;5042558;28;20958;-85
2021/03/16 05:29:20;;;;;;;0.10;0.10;;;1.50;98.50;;;;;;5046421;28;20241;-84
2021/03/16 05:31:45;;;;;;;0.10;0.10;;;1.40;98.50;;;;;;5065157;28;20205;-84
2021/03/16 05:34:12;;;;;;;0.00;0.00;;;1.40;98.50;;;;;;5033811;28;20278;-84
2021/03/16 05:36:37;;;;;;;0.10;0.10;;;1.40;98.50;;;;;;5066665;28;20275;-83
2021/03/16 05:39:03;;;;;;;1.20;0.30;;;1.40;98.50;;;;;;5074700;28;20298;-84
2021/03/16 05:41:30;;;;;;;0.20;0.20;;;1.40;98.50;;;;;;5052660;28;20187;-84
2021/03/16 05:43:56;;;;;;;0.20;0.20;;;1.40;98.50;;;;;;5049373;28;20178;-85
2021/03/16 05:46:23;;;;;;;0.10;0.10;;;1.40;98.50;;;;;;5058547;28;20183;-84
2021/03/16 05:48:51;;;;;;;0.50;0.20;;;1.40;98.50;;;;;;5043735;28;20194;-83
2021/03/16 05:51:17;;;;;;;0.30;0.30;;;1.40;98.50;;;;;;5050143;28;20195;-86
2021/03/16 05:53:51;;;;;;;0.10;0.10;;;1.40;98.50;;;;;;5047517;28;20178;-85
2021/03/16 05:56:17;;;;;;;0.20;0.20;;;1.50;98.50;;;;;;5053412;28;20666;-85
2021/03/16 05:58:43;;;;;;;0.20;0.20;;;1.50;98.50;;;;;;5046178;28;20191;-84
2021/03/16 06:01:14;;;;;;;0.30;0.30;;;1.50;98.50;;;;;;5076386;28;20244;-82
2021/03/16 06:03:40;;;;;;;0.10;0.10;;;1.50;98.50;;;;;;5036859;28;20211;-82
2021/03/16 06:06:08;;;;;;;0.10;0.10;;;1.50;98.50;;;;;;5046498;28;20186;-81
2021/03/16 06:08:34;;;;;;;0.03;0.03;;;1.60;98.50;;;;;;5051560;28;20190;-82
2021/03/16 06:11:00;;;;;;;0.33;0.33;;;1.60;98.50;;;;;;5046336;28;20183;-82
2021/03/16 06:13:30;;;;;;;0.40;0.30;;;1.60;98.50;;;;;;5070761;28;20194;-85
2021/03/16 06:15:59;;;;;;;0.20;0.20;;;1.70;98.50;;;;;;5071305;28;20183;-84
2021/03/16 06:18:26;;;;;;;0.20;0.20;;;1.70;98.50;;;;;;5069676;28;20210;-86
2021/03/16 06:21:00;;;;;;;0.20;0.20;;;1.80;98.50;;;;;;5053410;28;20313;-87
2021/03/16 06:23:35;;;;;;;0.27;0.27;;;1.80;98.50;;;;;;5055312;28;20264;-86
2021/03/16 06:26:02;;;;;;;0.10;0.10;;;1.80;98.50;;;;;;5052947;28;20186;-80
2021/03/16 06:28:35;;;;;;;0.30;0.30;;;1.80;98.50;;;;;;5056082;28;20179;-83
2021/03/16 06:31:02;;;;;;;0.20;0.20;;;1.90;98.50;;;;;;5070751;28;20206;-78
2021/03/16 06:33:30;;;;;;;0.10;0.10;;;1.80;98.50;;;;;;5064728;28;20708;-83
2021/03/16 06:36:01;;;;;;;0.10;0.10;;;1.80;98.50;;;;;;5050884;28;20192;-80
2021/03/16 06:38:28;;;;;;;0.43;0.43;;;1.80;98.50;;;;;;5039442;28;20568;-77
2021/03/16 06:40:54;;;;;;;0.10;0.10;;;1.80;98.50;;;;;;5070641;28;20191;-80
2021/03/16 06:43:24;;;;;;;0.20;0.20;;;1.80;98.50;;;;;;5063396;28;20246;-90
2021/03/16 06:45:52;;;;;;;0.20;0.20;;;1.80;98.50;;;;;;5043906;28;20187;-85
2021/03/16 06:48:20;;;;;;;0.10;0.10;;;1.80;98.50;;;;;;5043892;28;20253;-79
2021/03/16 06:50:47;;;;;;;0.10;0.10;;;1.80;98.50;;;;;;5050381;28;20252;-81
2021/03/16 06:53:22;;;;;;;0.20;0.20;;;1.70;98.50;;;;;;5050890;28;20636;-80
2021/03/16 06:55:54;;;;;;;0.67;0.20;;;1.70;98.50;;;;;;5055733;28;20193;-79
2021/03/16 06:58:24;;;;;;;0.10;0.10;;;1.70;98.50;;;;;;5064561;28;20194;-80
2021/03/16 07:00:50;;;;;;;0.20;0.20;;;1.70;98.50;;;;;;5048230;28;20186;-75
2021/03/16 07:03:18;;;;;;;0.20;0.20;;;1.70;98.50;;;;;;5048670;28;20244;-74
2021/03/16 07:05:45;;;;;;;0.20;0.20;;;1.70;98.20;;;;;;5071466;28;20167;-75
2021/03/16 07:08:13;;;;;;;0.17;0.17;;;1.70;98.50;;;;;;5044904;28;20552;-74
2021/03/16 07:10:41;;;;;;;0.30;0.30;;;1.80;98.50;;;;;;5067285;28;20178;-80
2021/03/16 07:13:09;;;;;;;0.10;0.10;;;1.80;97.90;;;;;;5049301;28;20222;-81
2021/03/16 07:15:39;;;;;;;0.40;0.40;;;1.80;97.90;;;;;;5068750;28;20265;-80
2021/03/16 07:18:05;;;;;;;0.30;0.20;;;1.90;98.00;;;;;;5042954;28;20210;-73
2021/03/16 07:20:34;;;;;;;0.30;0.30;;;1.90;98.00;;;;;;5066033;28;20186;-80
2021/03/16 07:23:02;;;;;;;0.20;0.20;;;1.90;97.30;;;;;;5054527;28;20264;-79
2021/03/16 07:25:31;;;;;;;0.27;0.27;;;1.90;96.50;;;;;;5050528;28;20242;-85
2021/03/16 07:27:57;;;;;;;0.60;0.20;;;1.80;96.00;;;;;;5055139;28;20658;-80
2021/03/16 07:30:24;;;;;;;0.20;0.20;;;1.90;95.50;;;;;;5066729;28;20282;-80
2021/03/16 07:32:52;;;;;;;1.17;0.40;;;1.90;95.60;;;;;;5064501;28;20182;-80
2021/03/16 07:35:18;;;;;;;0.40;0.40;;;1.90;95.50;;;;;;5046579;28;20221;-74
2021/03/16 07:37:44;;;;;;;0.20;0.20;;;2.00;95.50;;;;;;5063032;28;20218;-74
2021/03/16 07:40:10;;;;;;;0.40;0.40;;;1.90;95.40;;;;;;5065042;28;20191;-75
2021/03/16 07:42:37;;;;;;;0.83;0.40;;;1.90;95.80;;;;;;5045624;28;20569;-75
2021/03/16 07:45:04;;;;;;;0.67;0.60;;;2.00;96.30;;;;;;5063659;28;20265;-74
2021/03/16 07:47:37;;;;;;;0.93;0.33;;;2.00;96.30;;;;;;5063685;28;20262;-74
2021/03/16 07:50:06;;;;;;;0.50;0.50;;;2.10;96.40;;;;;;5062257;28;20191;-76
2021/03/16 07:52:44;;;;;;;0.53;0.53;;;2.00;95.30;;;;;;5062064;28;20205;-75
2021/03/16 07:55:10;;;;;;;0.50;0.50;;;2.00;96.00;;;;;;5046234;28;20677;-75
2021/03/16 07:57:36;;;;;;;0.53;0.53;;;1.90;95.30;;;;;;5045971;28;20728;-74
2021/03/16 08:00:05;;;;;;;0.40;0.40;;;1.80;95.80;;;;;;5059898;28;20191;-74
2021/03/16 08:02:33;;;;;;;0.93;0.47;;;1.80;95.90;;;;;;5063596;28;20248;-75
2021/03/16 08:04:59;;;;;;;0.47;0.47;;;1.80;95.80;;;;;;5063699;28;20189;-79
2021/03/16 08:07:28;;;;;;;0.70;0.70;;;1.80;96.30;;;;;;5042202;28;20675;-74
2021/03/16 08:09:57;;;;;;;0.67;0.67;;;1.90;96.10;;;;;;5061105;28;20686;-74
2021/03/16 08:12:30;;;;;;;1.70;0.80;;;1.90;96.00;;;;;;5060537;28;20561;-75
2021/03/16 08:15:08;;;;;;;0.40;0.40;;;2.00;94.50;;;;;;5045102;28;20296;-74
2021/03/16 08:17:35;;;;;;;0.90;0.90;;;2.00;94.10;;;;;;5063107;28;20189;-74
2021/03/16 08:20:02;;;;;;;0.40;0.40;;;2.00;94.70;;;;;;5058586;28;20184;-75
2021/03/16 08:22:29;;;;;;;0.80;0.80;;;2.10;94.00;;;;;;5047539;28;20241;-79
2021/03/16 08:25:06;;;;;;;0.80;0.80;;;2.10;93.50;;;;;;5059802;28;20190;-75
2021/03/16 08:27:34;;;;;;;0.60;0.60;;;2.10;93.00;;;;;;5068816;28;20178;-76
2021/03/16 08:30:04;;;;;;;0.50;0.50;;;2.10;93.00;;;;;;5045876;28;20266;-77
2021/03/16 08:32:30;;;;;;;0.60;0.60;;;2.20;92.30;;;;;;5065051;28;20191;-78
2021/03/16 08:34:56;;;;;;;0.33;0.33;;;2.20;92.10;;;;;;5062205;28;20188;-79
2021/03/16 08:37:32;;;;;;;1.37;1.00;;;2.20;91.70;;;;;;5041988;28;20214;-79
2021/03/16 08:40:00;;;;;;;0.83;0.83;;;2.30;92.20;;;;;;5036359;28;20194;-80
2021/03/16 08:42:27;;;;;;;1.30;0.83;;;2.30;91.70;;;;;;5035883;28;20211;-77
2021/03/16 08:44:54;;;;;;;1.40;0.57;;;2.40;91.90;;;;;;5044794;28;20270;-77
2021/03/16 08:47:22;;;;;;;0.70;0.57;;;2.40;91.30;;;;;;5061325;28;20182;-78
2021/03/16 08:49:50;;;;;;;2.27;0.70;;;2.40;91.50;;;;;;5039649;28;20683;-79
2021/03/16 08:52:17;;;;;;;0.80;0.80;;;2.30;91.60;;;;;;5036253;28;20601;-79
2021/03/16 08:54:43;;;;;;;0.47;0.47;;;2.30;91.60;;;;;;5059565;28;20179;-76
2021/03/16 08:57:09;;;;;;;1.03;0.93;;;2.30;92.00;;;;;;5059788;28;20189;-76
2021/03/16 08:59:40;;;;;;;1.10;1.10;;;2.20;91.30;;;;;;5052103;28;20578;-76
2021/03/16 09:02:06;;;;;;;0.90;0.90;;;2.30;91.70;;;;;;5037783;28;20199;-77
2021/03/16 09:04:34;;;;;;;1.27;0.70;;;2.30;91.50;;;;;;5039268;28;20231;-76
2021/03/16 09:07:00;;;;;;;1.37;1.17;;;2.30;91.20;;;;;;5046128;28;20253;-77
2021/03/16 09:09:27;;;;;;;0.87;0.87;;;2.30;91.40;;;;;;5058627;28;20724;-77
2021/03/16 09:11:56;;;;;;;1.00;1.00;;;2.40;91.10;;;;;;5044665;28;20569;-76
2021/03/16 09:14:22;;;;;;;0.70;0.70;;;2.40;90.70;;;;;;5045060;28;20197;-77
2021/03/16 09:16:57;;;;;;;0.63;0.63;;;2.40;91.00;;;;;;5040087;28;20627;-79
2021/03/16 09:19:31;;;;;;;0.50;0.50;;;2.40;90.40;;;;;;5064943;28;20184;-78
2021/03/16 09:22:02;;;;;;;1.00;0.70;;;2.40;90.50;;;;;;5041815;28;20237;-78
2021/03/16 09:24:30;;;;;;;0.73;0.73;;;2.40;90.80;;;;;;5060496;28;20179;-78
2021/03/16 09:26:57;;;;;;;0.50;0.50;;;2.40;90.00;;;;;;5062942;28;20201;-77
2021/03/16 09:29:25;;;;;;;0.70;0.70;;;2.40;89.80;;;;;;5047308;28;20716;-78
2021/03/16 09:31:51;;;;;;;0.83;0.70;;;2.40;89.90;;;;;;5055631;28;20189;-77
2021/03/16 09:34:23;;;;;;;0.80;0.80;;;2.40;89.40;;;;;;5060544;28;20190;-76
2021/03/16 09:37:00;;;;;;;1.33;0.97;;;2.50;90.00;;;;;;5064997;28;20179;-77
2021/03/16 09:39:26;;;;;;;0.67;0.67;;;2.50;89.40;;;;;;5039993;28;20180;-77
2021/03/16 09:41:57;;;;;;;1.07;1.03;;;2.60;89.80;;;;;;5054369;28;20194;-77
2021/03/16 09:44:36;;;;;;;0.93;0.90;;;2.70;89.40;;;;;;5043176;28;20187;-78
2021/03/16 09:47:03;;;;;;;1.13;0.80;;;2.70;89.30;;;;;;5060306;28;20598;-77
2021/03/16 09:49:41;;;;;;;0.93;0.93;;;2.70;89.00;;;;;;5036595;28;20218;-77
2021/03/16 09:52:11;;;;;;;1.13;0.83;;;2.80;89.50;;;;;;5043778;28;20210;-77
2021/03/16 09:54:43;;;;;;;0.70;0.70;;;2.80;89.30;;;;;;5076409;28;20214;-77
2021/03/16 09:57:12;;;;;;;0.87;0.87;;;2.80;89.70;;;;;;5057528;28;20236;-78
2021/03/16 09:59:40;;;;;;;1.53;0.63;;;2.80;89.70;;;;;;5042074;28;20581;-78
2021/03/16 10:02:07;;;;;;;0.80;0.80;;;2.80;89.20;;;;;;5056644;28;20211;-78
2021/03/16 10:04:46;;;;;;;1.23;0.73;;;2.80;89.60;;;;;;5056346;28;20186;-77
2021/03/16 10:07:22;;;;;;;0.60;0.60;;;2.70;89.70;;;;;;5052840;28;20183;-76
2021/03/16 10:09:48;;;;;;;0.73;0.73;;;2.70;90.30;;;;;;5040177;28;20201;-77
2021/03/16 10:12:19;;;;;;;0.60;0.60;;;2.70;91.00;;;;;;5061136;28;20187;-78
2021/03/16 10:14:51;;;;;;;0.70;0.70;;;2.60;91.90;;;;;;5046665;28;20582;-74
2021/03/16 10:17:25;;;;;;;1.77;0.60;;;2.60;91.80;;;;;;5066063;28;20729;-74
2021/03/16 10:20:18;;;;;;;0.63;0.63;;;2.50;92.00;;;;;;5050941;28;20183;-74
2021/03/16 10:22:52;;;;;;;0.30;0.30;;;2.40;92.80;;;;;;5055598;28;20304;-74
2021/03/16 10:25:18;;;;;;;0.70;0.70;;;2.40;93.20;;;;;;5065079;28;20182;-75
2021/03/16 10:27:59;;;;;;;0.87;0.87;;;2.30;93.30;;;;;;5047434;28;20247;-75
2021/03/16 10:30:51;;;;;;;0.60;0.60;;;2.30;93.70;;;;;;5057656;28;20182;-73
2021/03/16 10:33:16;;;;;;;0.73;0.73;;;2.30;94.00;;;;;;5046551;28;20281;-75
2021/03/16 10:35:43;;;;;;;0.70;0.70;;;2.20;94.60;;;;;;5065864;28;20730;-74
2021/03/16 10:38:09;;;;;;;0.73;0.73;;;2.20;95.20;;;;;;5045201;28;20215;-74
2021/03/16 10:40:35;;;;;;;0.73;0.73;;;2.20;95.90;;;;;;5047855;28;20214;-74
2021/03/16 10:43:02;;;;;;;0.33;0.33;;;2.20;95.70;;;;;;5065793;28;20203;-74
2021/03/16 10:45:29;;;;;;;1.63;0.80;;;2.20;95.80;;;;;;5075051;28;20194;-74
2021/03/16 10:47:54;;;;;;;0.87;0.70;;;2.20;95.20;;;;;;5058252;28;20259;-73
2021/03/16 10:50:21;;;;;;;2.00;0.70;;;2.10;95.20;;;;;;5065787;28;20802;-74
2021/03/16 10:56:09;;;;;;;0.80;0.80;;;2.00;96.40;;;;;;5063673;28;20194;-75
2021/03/16 10:58:35;;;;;;;0.60;0.60;;;2.00;96.90;;;;;;5056571;28;20175;-77
2021/03/16 11:01:02;;;;;;;0.90;0.70;;;2.00;96.90;;;;;;5065456;28;20265;-73
2021/03/16 11:03:28;;;;;;;0.97;0.87;;;2.00;97.30;;;;;;5070441;28;20264;-74
2021/03/16 11:05:54;;;;;;;0.60;0.60;;;1.90;97.10;;;;;;5047120;28;20178;-74
2021/03/16 11:08:19;;;;;;;0.77;0.40;;;1.80;97.50;;;;;;5065499;28;20190;-75
2021/03/16 11:10:45;;;;;;;0.50;0.40;;;1.80;97.70;;;;;;5065337;28;20174;-74
2021/03/16 11:13:11;;;;;;;0.40;0.40;;;1.70;98.00;;;;;;5057482;28;20256;-76
2021/03/16 11:15:38;;;;;;;0.60;0.60;;;1.70;98.00;;;;;;5066029;28;20232;-76
2021/03/16 11:18:04;;;;;;;0.67;0.67;;;1.80;98.50;;;;;;5057004;28;20536;-75
2021/03/16 11:20:30;;;;;;;0.60;0.53;;;1.70;98.50;;;;;;5049496;28;20276;-75
2021/03/16 11:22:56;;;;;;;0.97;0.73;;;1.70;98.50;;;;;;5064500;28;20213;-75
2021/03/16 11:25:22;;;;;;;0.37;0.37;;;1.70;98.50;;;;;;5060947;28;20714;-75
2021/03/16 11:27:47;;;;;;;0.63;0.63;;;1.70;98.50;;;;;;5057887;28;20183;-74
2021/03/16 11:30:13;;;;;;;0.77;0.77;;;1.70;98.50;;;;;;5060190;28;20241;-71
2021/03/16 11:32:39;;;;;;;0.60;0.60;;;1.80;98.50;;;;;;5060273;28;20273;-73
2021/03/16 11:35:06;;;;;;;0.80;0.80;;;1.70;98.50;;;;;;5059832;28;20271;-84
2021/03/16 11:37:31;;;;;;;0.67;0.67;;;1.70;98.50;;;;;;5051084;28;20202;-80
2021/03/16 11:39:57;;;;;;;0.47;0.47;;;1.70;98.50;;;;;;5056973;28;20217;-80
2021/03/16 11:42:23;;;;;;;1.00;1.00;;;1.70;98.50;;;;;;5044278;28;20755;-79
2021/03/16 11:44:49;;;;;;;0.73;0.73;;;1.70;98.50;;;;;;5046814;28;20738;-80
2021/03/16 11:47:16;;;;;;;1.13;0.63;;;1.70;98.50;;;;;;5068126;28;20273;-78
2021/03/16 11:49:42;;;;;;;0.83;0.50;;;1.70;98.50;;;;;;5065100;28;20237;-79
2021/03/16 11:52:08;;;;;;;0.40;0.40;;;1.70;98.50;;;;;;5037854;28;20214;-82
2021/03/16 11:54:34;;;;;;;2.27;0.80;;;1.70;98.50;;;;;;5035167;28;20194;-81
2021/03/16 11:57:00;;;;;;;0.60;0.60;;;1.70;98.50;;;;;;5057168;28;20557;-80
2021/03/16 11:59:28;;;;;;;0.47;0.47;;;1.60;98.50;;;;;;5046580;28;20187;-85
2021/03/16 12:01:55;;;;;;;0.87;0.87;;;1.60;98.50;;;;;;5048965;28;20183;-87
2021/03/16 12:04:21;;;;;;;1.37;0.70;;;1.60;98.50;;;;;;5036953;28;20191;-82
2021/03/16 12:06:47;;;;;;;1.60;0.90;;;1.60;98.50;;;;;;5064056;28;20241;-86
2021/03/16 12:11:58;;;;;;;0.87;0.70;;;1.60;98.50;;;;;;5051460;28;20233;-87
2021/03/16 12:14:24;;;;;;;0.93;0.87;;;1.60;98.50;;;;;;5037409;28;20784;-85
2021/03/16 12:16:50;;;;;;;0.37;0.37;;;1.60;98.50;;;;;;5069100;28;20244;-83
2021/03/16 12:19:16;;;;;;;0.70;0.70;;;1.70;98.50;;;;;;5037898;28;20858;-84
2021/03/16 12:21:41;;;;;;;0.50;0.50;;;1.70;98.50;;;;;;5040010;28;20340;-83
2021/03/16 12:24:07;;;;;;;0.50;0.50;;;1.70;98.50;;;;;;5048998;28;20280;-83
2021/03/16 12:26:33;;;;;;;0.77;0.77;;;1.70;98.50;;;;;;5061184;28;20289;-85
2021/03/16 12:28:59;;;;;;;0.40;0.40;;;1.70;98.50;;;;;;5037287;28;20183;-84
2021/03/16 12:31:24;;;;;;;0.60;0.60;;;1.70;98.50;;;;;;5040684;28;20268;-85
2021/03/16 12:33:52;;;;;;;0.90;0.90;;;1.70;98.50;;;;;;5047928;28;20193;-84
2021/03/16 12:36:17;;;;;;;0.93;0.90;;;1.70;98.50;;;;;;5047495;28;20187;-83
2021/03/16 12:38:43;;;;;;;1.57;0.70;;;1.80;98.50;;;;;;5067359;28;20183;-83
2021/03/16 12:41:09;;;;;;;0.50;0.50;;;1.80;98.50;;;;;;5058625;28;20241;-83
2021/03/16 12:43:34;;;;;;;0.63;0.63;;;1.80;98.30;;;;;;5056134;28;20203;-83
2021/03/16 12:46:03;;;;;;;0.80;0.80;;;1.90;98.00;;;;;;5047863;28;20188;-83
2021/03/16 12:48:28;;;;;;;0.70;0.70;;;1.90;97.90;;;;;;5050247;28;20208;-83
2021/03/16 12:50:54;;;;;;;0.70;0.70;;;2.00;97.70;;;;;;5064647;28;20662;-85
2021/03/16 12:53:20;;;;;;;1.27;0.80;;;2.00;97.30;;;;;;5067279;28;20282;-85
2021/03/16 12:55:45;;;;;;;20.87;0.80;;;2.00;97.00;;;;;;5050266;28;20190;-84
2021/03/16 12:58:11;;;;;;;0.57;0.57;;;2.10;96.10;;;;;;5056067;28;20190;-85
2021/03/16 13:00:56;;;;;;;0.60;0.60;;;2.10;95.90;;;;;;5050037;28;20207;-83
2021/03/16 13:03:21;;;;;;;0.60;0.60;;;2.10;95.80;;;;;;5041110;28;20206;-83
2021/03/16 13:05:47;;;;;;;0.60;0.60;;;2.10;95.20;;;;;;5051410;28;20190;-85
2021/03/16 13:08:13;;;;;;;0.50;0.50;;;2.20;95.80;;;;;;5048915;28;20183;-86